Time;durP1;ratioP1;P1;durP2;ratioP2;P2;SDS_P1;SDS_P2;PMS_P1;PMS_P2;Temp;Humidity;BMP_temperature;BMP_pressure;BME280_temperature;BME280_humidity;BME280_pressure;Samples;Min_cycle;Max_cycle;Signal;HPM_P1;HPM_P2
2022/09/19 00:00:46;;;;;;;5.53;1.90;;;11.10;99.90;;;;;;4060550;29;20041;-66
2022/09/19 00:02:47;;;;;;;9.23;2.22;;;11.20;99.90;;;;;;4063462;29;20075;-66
2022/09/19 00:04:47;;;;;;;8.73;1.95;;;11.20;99.90;;;;;;4063413;29;20092;-66
2022/09/19 00:06:50;;;;;;;14.40;2.33;;;11.20;99.90;;;;;;4061993;29;20055;-66
2022/09/19 00:08:50;;;;;;;12.52;2.10;;;11.10;99.90;;;;;;4061179;29;20036;-66
2022/09/19 00:10:51;;;;;;;10.70;2.15;;;11.10;99.90;;;;;;4061212;29;20120;-66
2022/09/19 00:12:55;;;;;;;12.27;2.40;;;11.10;99.90;;;;;;4061845;29;20062;-65
2022/09/19 00:14:57;;;;;;;10.70;2.17;;;11.20;99.90;;;;;;4063032;29;20111;-65
2022/09/19 00:17:00;;;;;;;10.63;2.60;;;11.20;99.90;;;;;;4062435;29;20040;-66
2022/09/19 00:19:04;;;;;;;7.80;2.13;;;11.20;99.90;;;;;;4061371;29;20043;-66
2022/09/19 00:21:05;;;;;;;8.52;1.85;;;11.20;99.90;;;;;;4061776;29;20032;-65
2022/09/19 00:25:25;;;;;;;7.70;2.08;;;11.30;99.90;;;;;;4059853;29;20048;-66
2022/09/19 00:27:27;;;;;;;11.15;2.15;;;11.30;99.90;;;;;;4063045;29;20036;-65
2022/09/19 00:29:28;;;;;;;5.55;1.83;;;11.30;99.90;;;;;;4062334;29;20040;-66
2022/09/19 00:31:29;;;;;;;6.45;1.75;;;11.30;99.90;;;;;;4061642;29;20032;-66
2022/09/19 00:33:31;;;;;;;7.45;1.75;;;11.40;99.90;;;;;;4061750;29;20096;-65
2022/09/19 00:35:32;;;;;;;6.28;2.13;;;11.40;99.90;;;;;;4062395;29;20404;-66
2022/09/19 00:37:33;;;;;;;8.75;2.20;;;11.40;99.90;;;;;;4061310;29;20119;-66
2022/09/19 00:39:34;;;;;;;15.60;2.63;;;11.40;99.90;;;;;;4061092;29;20060;-66
2022/09/19 00:41:36;;;;;;;11.35;2.38;;;11.40;99.90;;;;;;4061048;29;20028;-66
2022/09/19 00:43:57;;;;;;;12.18;2.60;;;11.40;99.90;;;;;;4061489;29;20039;-66
2022/09/19 00:45:58;;;;;;;7.35;2.20;;;11.40;99.90;;;;;;4059072;29;20036;-66
2022/09/19 00:47:59;;;;;;;10.00;2.50;;;11.30;99.90;;;;;;4062765;29;20037;-66
2022/09/19 00:50:03;;;;;;;7.70;2.05;;;11.40;99.90;;;;;;4059441;29;20052;-65
2022/09/19 00:52:07;;;;;;;9.93;2.38;;;11.40;99.90;;;;;;4059940;29;20032;-65
2022/09/19 00:54:13;;;;;;;12.85;2.35;;;11.40;99.90;;;;;;4062558;29;20091;-65
2022/09/19 00:56:18;;;;;;;7.47;1.75;;;11.40;99.90;;;;;;4060997;29;20044;-67
2022/09/19 00:58:36;;;;;;;9.43;2.17;;;11.40;99.90;;;;;;4059807;29;20040;-66
2022/09/19 01:00:37;;;;;;;7.78;1.75;;;11.40;99.90;;;;;;4056983;29;20367;-66
2022/09/19 01:02:37;;;;;;;11.18;2.33;;;11.40;99.90;;;;;;4063463;29;20036;-65
2022/09/19 01:04:41;;;;;;;10.38;2.10;;;11.30;99.90;;;;;;4064139;29;20457;-65
2022/09/19 01:07:06;;;;;;;13.73;2.70;;;11.30;99.90;;;;;;4061699;29;20128;-66
2022/09/19 01:09:28;;;;;;;13.80;2.35;;;11.30;99.90;;;;;;4059326;29;20131;-66
2022/09/19 01:11:57;;;;;;;7.60;2.10;;;11.20;99.90;;;;;;4059201;29;20040;-66
2022/09/19 01:14:07;;;;;;;7.22;1.92;;;11.20;99.90;;;;;;4058572;29;20490;-66
2022/09/19 01:16:20;;;;;;;7.38;1.92;;;11.30;99.90;;;;;;4062422;29;22635;-65
2022/09/19 01:18:26;;;;;;;14.38;2.78;;;11.20;99.90;;;;;;4064061;28;20063;-65
2022/09/19 01:20:38;;;;;;;10.57;2.22;;;11.30;99.90;;;;;;4059563;29;20052;-66
2022/09/19 01:22:55;;;;;;;9.40;1.88;;;11.20;99.90;;;;;;4063198;29;20072;-67
2022/09/19 01:24:58;;;;;;;7.82;2.13;;;11.10;99.90;;;;;;4063053;29;20033;-66
2022/09/19 01:27:16;;;;;;;;;;;11.10;99.90;;;;;;4062052;29;20032;-66
2022/09/19 01:29:25;;;;;;;11.27;2.35;;;11.20;99.90;;;;;;4061667;29;20053;-65
2022/09/19 01:31:33;;;;;;;5.93;1.67;;;11.20;99.90;;;;;;4061086;29;20040;-66
2022/09/19 01:33:38;;;;;;;8.18;2.00;;;11.20;99.90;;;;;;4061091;29;20086;-66
2022/09/19 01:35:41;;;;;;;6.45;1.65;;;11.20;99.90;;;;;;4057843;29;20527;-66
2022/09/19 01:37:51;;;;;;;7.90;1.88;;;11.20;99.90;;;;;;4062695;29;20031;-66
2022/09/19 01:39:54;;;;;;;9.02;1.95;;;11.30;99.90;;;;;;4062231;29;20485;-66
2022/09/19 01:41:57;;;;;;;;;;;11.20;99.90;;;;;;4060671;29;20555;-66
2022/09/19 01:44:05;;;;;;;3.53;1.20;;;11.30;99.90;;;;;;4062408;29;19922;-66
2022/09/19 01:46:39;;;;;;;7.40;1.58;;;11.30;99.90;;;;;;4064011;29;20094;-66
2022/09/19 01:48:52;;;;;;;5.47;2.17;;;11.30;99.90;;;;;;4062011;29;20636;-67
2022/09/19 01:51:18;;;;;;;14.95;2.30;;;11.30;99.90;;;;;;4063001;29;20177;-66
2022/09/19 01:53:30;;;;;;;6.00;1.73;;;11.30;99.90;;;;;;4063577;29;20230;-66
2022/09/19 01:55:45;;;;;;;16.63;2.97;;;11.30;99.90;;;;;;4062896;29;20044;-67
2022/09/19 01:57:57;;;;;;;11.00;2.20;;;11.30;99.90;;;;;;4064695;29;20032;-66
2022/09/19 02:00:15;;;;;;;11.77;2.33;;;11.30;99.90;;;;;;4063841;29;20036;-65
2022/09/19 02:02:41;;;;;;;11.25;2.05;;;11.20;99.90;;;;;;4064923;29;20048;-66
2022/09/19 02:05:04;;;;;;;12.35;2.60;;;11.20;99.90;;;;;;4058590;29;20494;-66
2022/09/19 02:07:16;;;;;;;9.75;2.28;;;11.20;99.90;;;;;;4059043;29;25887;-69
2022/09/19 02:09:20;;;;;;;10.77;2.03;;;11.20;99.90;;;;;;4065601;29;20103;-66
2022/09/19 02:11:22;;;;;;;13.55;2.65;;;11.30;99.90;;;;;;4063055;29;20414;-65
2022/09/19 02:13:30;;;;;;;11.60;2.38;;;11.20;99.90;;;;;;4066668;29;20422;-65
2022/09/19 02:15:34;;;;;;;7.65;1.50;;;11.20;99.90;;;;;;4065706;29;20040;-68
2022/09/19 02:17:55;;;;;;;11.90;2.28;;;11.10;99.90;;;;;;4063182;29;20096;-68
2022/09/19 02:20:14;;;;;;;12.43;2.47;;;11.20;99.90;;;;;;4064727;29;20175;-68
2022/09/19 02:22:33;;;;;;;9.65;1.83;;;11.10;99.90;;;;;;4065891;29;20028;-68
2022/09/19 02:24:38;;;;;;;7.53;2.00;;;11.10;99.90;;;;;;4063525;29;20092;-68
2022/09/19 02:26:40;;;;;;;10.25;2.17;;;11.10;99.90;;;;;;4064441;29;20119;-68
2022/09/19 02:28:44;;;;;;;8.02;2.38;;;11.10;99.90;;;;;;4065331;29;20039;-67
2022/09/19 02:30:45;;;;;;;9.68;2.33;;;11.20;99.90;;;;;;4059514;29;20405;-68
2022/09/19 02:32:47;;;;;;;7.68;2.10;;;11.10;99.90;;;;;;4063509;29;20454;-67
2022/09/19 02:34:50;;;;;;;17.73;2.65;;;11.10;99.90;;;;;;4061890;29;20043;-68
2022/09/19 02:37:18;;;;;;;8.68;1.75;;;11.10;99.90;;;;;;4064366;29;20444;-69
2022/09/19 02:39:28;;;;;;;13.80;2.42;;;11.10;99.90;;;;;;4062779;29;20504;-68
2022/09/19 02:41:42;;;;;;;9.35;2.35;;;11.10;99.90;;;;;;4059517;29;20048;-68
2022/09/19 02:43:50;;;;;;;6.35;1.40;;;11.10;99.90;;;;;;4065120;29;20036;-68
2022/09/19 02:45:55;;;;;;;5.43;1.75;;;11.10;99.90;;;;;;4064055;29;20055;-68
2022/09/19 02:48:03;;;;;;;9.70;2.15;;;11.20;99.90;;;;;;4063627;29;20048;-68
2022/09/19 02:50:10;;;;;;;6.88;2.00;;;11.20;99.90;;;;;;4062601;29;20514;-68
2022/09/19 02:52:28;;;;;;;6.65;2.13;;;11.20;99.90;;;;;;4062955;29;20119;-68
2022/09/19 02:54:35;;;;;;;6.07;1.85;;;11.10;99.90;;;;;;4062310;28;20039;-68
2022/09/19 02:56:41;;;;;;;6.00;2.03;;;11.20;99.90;;;;;;4056525;28;20516;-68
2022/09/19 02:58:51;;;;;;;9.65;2.58;;;11.10;99.90;;;;;;4058879;28;20040;-68
2022/09/19 03:00:55;;;;;;;9.15;2.70;;;11.20;99.90;;;;;;4055749;28;20446;-68
2022/09/19 03:04:11;;;;;;;8.10;2.30;;;11.20;99.90;;;;;;4059110;29;20083;-68
2022/09/19 03:05:27;;;;;;;7.05;2.00;;;11.10;99.90;;;;;;4061316;28;20051;-68
2022/09/19 03:07:32;;;;;;;5.97;1.95;;;11.10;99.90;;;;;;4061775;29;20496;-68
2022/09/19 03:09:32;;;;;;;7.15;1.77;;;11.10;99.90;;;;;;4057606;29;20067;-68
2022/09/19 03:11:36;;;;;;;4.38;1.65;;;11.10;99.90;;;;;;4063333;29;20497;-68
2022/09/19 03:13:40;;;;;;;7.75;2.13;;;11.10;99.90;;;;;;4065681;29;20165;-68
2022/09/19 03:15:50;;;;;;;10.35;1.85;;;11.10;99.90;;;;;;4061095;29;20036;-68
2022/09/19 03:17:53;;;;;;;9.48;2.45;;;11.20;99.90;;;;;;4065319;29;20403;-68
2022/09/19 03:19:53;;;;;;;7.03;1.60;;;11.20;99.90;;;;;;4064098;29;20035;-68
2022/09/19 03:21:54;;;;;;;5.50;1.58;;;11.20;99.90;;;;;;4062830;29;20036;-68
2022/09/19 03:23:58;;;;;;;4.43;1.20;;;11.30;99.90;;;;;;4065518;29;20028;-68
2022/09/19 03:26:01;;;;;;;4.05;1.58;;;11.30;99.90;;;;;;4064525;29;20043;-69
2022/09/19 03:28:02;;;;;;;;;;;11.30;99.90;;;;;;4064591;29;20036;-68
2022/09/19 03:30:09;;;;;;;7.63;1.60;;;11.30;99.90;;;;;;4062867;29;20384;-68
2022/09/19 03:32:10;;;;;;;4.63;1.85;;;11.30;99.90;;;;;;4062969;29;20028;-68
2022/09/19 03:34:12;;;;;;;6.97;1.67;;;11.30;99.90;;;;;;4065370;29;20120;-68
2022/09/19 03:36:12;;;;;;;11.70;1.95;;;11.30;99.90;;;;;;4063343;29;20602;-68
2022/09/19 03:38:13;;;;;;;5.75;1.25;;;11.30;99.90;;;;;;4065336;29;20024;-68
2022/09/19 03:40:14;;;;;;;5.85;1.88;;;11.30;99.90;;;;;;4061690;29;20508;-68
2022/09/19 03:42:15;;;;;;;8.60;1.92;;;11.30;99.90;;;;;;4063957;29;20405;-68
2022/09/19 03:44:17;;;;;;;8.85;2.00;;;11.30;99.90;;;;;;4065025;29;20032;-69
2022/09/19 03:46:22;;;;;;;5.13;1.60;;;11.30;99.90;;;;;;4064279;29;20040;-68
2022/09/19 03:48:23;;;;;;;9.95;2.20;;;11.20;99.90;;;;;;4064913;29;20115;-68
2022/09/19 03:50:24;;;;;;;5.75;1.65;;;11.20;99.90;;;;;;4062944;29;20047;-68
2022/09/19 03:52:28;;;;;;;4.90;1.63;;;11.20;99.90;;;;;;4063566;29;20434;-68
2022/09/19 03:54:29;;;;;;;7.88;1.65;;;11.20;99.90;;;;;;4062832;29;20519;-68
2022/09/19 03:56:29;;;;;;;6.07;1.92;;;11.20;99.90;;;;;;4064393;29;20032;-68
2022/09/19 03:58:30;;;;;;;5.95;1.65;;;11.20;99.90;;;;;;4064485;29;20036;-68
2022/09/19 04:00:31;;;;;;;7.13;1.90;;;11.20;99.90;;;;;;4061554;29;20044;-68
2022/09/19 04:02:32;;;;;;;7.70;1.90;;;11.20;99.90;;;;;;4044104;29;20117;-68
2022/09/19 04:04:34;;;;;;;4.32;1.52;;;11.20;99.90;;;;;;4062195;29;20039;-68
2022/09/19 04:06:34;;;;;;;6.78;1.50;;;11.20;99.90;;;;;;4062334;29;20048;-68
2022/09/19 04:08:36;;;;;;;6.28;2.00;;;11.20;99.90;;;;;;4063510;29;20087;-68
2022/09/19 04:10:37;;;;;;;4.88;1.35;;;11.20;99.90;;;;;;4058729;29;20044;-68
2022/09/19 04:12:38;;;;;;;11.02;2.33;;;11.20;99.90;;;;;;4060853;28;20044;-68
2022/09/19 04:14:39;;;;;;;8.13;1.90;;;11.20;99.90;;;;;;4058390;28;20031;-68
2022/09/19 04:16:39;;;;;;;8.93;2.08;;;11.20;99.90;;;;;;4057907;28;20039;-68
2022/09/19 04:18:45;;;;;;;6.18;1.70;;;11.20;99.90;;;;;;4059196;29;20168;-68
2022/09/19 04:20:47;;;;;;;4.32;1.48;;;11.20;99.90;;;;;;4059584;29;20135;-68
2022/09/19 04:22:49;;;;;;;10.40;1.75;;;11.20;99.90;;;;;;4060748;28;20379;-67
2022/09/19 04:24:51;;;;;;;10.07;2.55;;;11.20;99.90;;;;;;4058898;28;20390;-67
2022/09/19 04:26:51;;;;;;;9.05;2.38;;;11.10;99.90;;;;;;4062299;29;20080;-68
2022/09/19 04:28:52;;;;;;;9.93;1.80;;;11.20;99.90;;;;;;4062837;29;20092;-68
2022/09/19 04:30:55;;;;;;;6.00;1.70;;;11.10;99.90;;;;;;4058518;29;20044;-68
2022/09/19 04:32:55;;;;;;;;;;;11.20;99.90;;;;;;4063099;29;20044;-68
2022/09/19 04:34:59;;;;;;;6.13;2.15;;;11.20;99.90;;;;;;4061083;29;20304;-67
2022/09/19 04:37:03;;;;;;;5.20;1.48;;;11.10;99.90;;;;;;4056932;28;20400;-68
2022/09/19 04:39:04;;;;;;;8.77;1.85;;;11.20;99.90;;;;;;4056810;29;20036;-67
2022/09/19 04:41:04;;;;;;;7.35;1.90;;;11.20;99.90;;;;;;4061053;29;20551;-68
2022/09/19 04:43:10;;;;;;;6.72;1.67;;;11.20;99.90;;;;;;4063819;29;20068;-68
2022/09/19 04:45:11;;;;;;;5.22;1.27;;;11.20;99.90;;;;;;4062495;29;20096;-68
2022/09/19 04:47:14;;;;;;;6.25;1.92;;;11.20;99.90;;;;;;4064113;29;20040;-68
2022/09/19 04:49:16;;;;;;;7.10;1.92;;;11.20;99.90;;;;;;4060890;29;20072;-67
2022/09/19 04:51:16;;;;;;;7.63;1.60;;;11.20;99.90;;;;;;4058372;29;20268;-67
2022/09/19 04:53:19;;;;;;;5.07;1.35;;;11.20;99.90;;;;;;4063133;29;20524;-67
2022/09/19 04:55:19;;;;;;;8.00;1.85;;;11.20;99.90;;;;;;4063149;29;20052;-67
2022/09/19 04:57:20;;;;;;;10.48;2.10;;;11.20;99.90;;;;;;4063192;29;20029;-67
2022/09/19 04:59:21;;;;;;;5.85;2.20;;;11.20;99.90;;;;;;4060893;29;20039;-67
2022/09/19 05:01:23;;;;;;;13.30;2.65;;;11.10;99.90;;;;;;4061428;29;20036;-67
2022/09/19 05:03:30;;;;;;;9.30;2.45;;;11.10;99.90;;;;;;4063279;29;20535;-67
2022/09/19 05:05:31;;;;;;;9.35;2.53;;;11.20;99.90;;;;;;4059568;29;20119;-68
2022/09/19 05:07:35;;;;;;;7.55;2.40;;;11.20;99.90;;;;;;4062159;29;20060;-67
2022/09/19 05:09:36;;;;;;;9.73;2.15;;;11.10;99.90;;;;;;4062375;29;20059;-67
2022/09/19 05:11:40;;;;;;;7.55;2.08;;;11.10;99.90;;;;;;4058959;29;20084;-67
2022/09/19 05:13:40;;;;;;;7.57;2.35;;;11.10;99.90;;;;;;4057175;29;20044;-67
2022/09/19 05:15:44;;;;;;;8.73;2.33;;;11.10;99.90;;;;;;4062076;29;20374;-67
2022/09/19 05:17:45;;;;;;;4.82;1.77;;;11.00;99.90;;;;;;4064027;29;20040;-68
2022/09/19 05:19:46;;;;;;;7.18;1.48;;;11.00;99.90;;;;;;4058283;29;20036;-68
2022/09/19 05:21:47;;;;;;;5.47;1.60;;;11.10;99.90;;;;;;4063998;29;20519;-68
2022/09/19 05:23:48;;;;;;;5.00;1.90;;;11.00;99.90;;;;;;4059179;29;20040;-67
2022/09/19 05:25:53;;;;;;;8.32;2.13;;;11.10;99.90;;;;;;4061986;29;20160;-66
2022/09/19 05:27:57;;;;;;;4.35;1.10;;;11.10;99.90;;;;;;4058097;29;20040;-68
2022/09/19 05:29:58;;;;;;;6.60;1.88;;;11.10;99.90;;;;;;4063676;29;20047;-68
2022/09/19 05:32:02;;;;;;;6.00;2.00;;;11.10;99.90;;;;;;4065120;29;20040;-68
2022/09/19 05:34:02;;;;;;;11.15;2.25;;;11.10;99.90;;;;;;4062330;29;20044;-67
2022/09/19 05:36:03;;;;;;;9.93;2.17;;;11.10;99.90;;;;;;4063561;29;20094;-66
2022/09/19 05:38:04;;;;;;;6.20;2.17;;;11.10;99.90;;;;;;4064245;29;20127;-67
2022/09/19 05:40:05;;;;;;;7.03;2.08;;;11.10;99.90;;;;;;4058045;29;20071;-67
2022/09/19 05:42:06;;;;;;;7.28;2.08;;;11.10;99.90;;;;;;4061152;29;20509;-67
2022/09/19 05:44:07;;;;;;;7.50;2.10;;;11.20;99.90;;;;;;4063215;29;20103;-67
2022/09/19 05:46:08;;;;;;;8.50;1.60;;;11.10;99.90;;;;;;4061929;29;20044;-67
2022/09/19 05:48:09;;;;;;;4.07;2.00;;;11.20;99.90;;;;;;4063811;29;20458;-67
2022/09/19 05:50:11;;;;;;;4.68;1.55;;;11.20;99.90;;;;;;4063217;29;20067;-67
2022/09/19 05:54:31;;;;;;;5.55;1.63;;;11.20;99.90;;;;;;4062233;29;19918;-67
2022/09/19 05:56:32;;;;;;;3.90;1.50;;;11.20;99.90;;;;;;4061517;29;20131;-67
2022/09/19 05:58:36;;;;;;;8.55;2.13;;;11.20;99.90;;;;;;4064851;29;20040;-68
2022/09/19 06:00:37;;;;;;;6.25;1.83;;;11.20;99.90;;;;;;4063501;29;20040;-67
2022/09/19 06:02:38;;;;;;;6.30;1.88;;;11.20;99.90;;;;;;4063661;29;20040;-67
2022/09/19 06:04:38;;;;;;;7.85;2.05;;;11.30;99.90;;;;;;4060900;29;20099;-67
2022/09/19 06:06:39;;;;;;;5.68;1.90;;;11.20;99.90;;;;;;4056988;29;20405;-67
2022/09/19 06:08:42;;;;;;;6.63;1.80;;;11.20;99.90;;;;;;4060745;29;20052;-66
2022/09/19 06:10:44;;;;;;;7.70;1.90;;;11.20;99.90;;;;;;4061607;29;20453;-67
2022/09/19 06:12:45;;;;;;;7.43;2.00;;;11.30;99.90;;;;;;4061777;29;20040;-67
2022/09/19 06:14:45;;;;;;;4.85;1.50;;;11.30;99.90;;;;;;4058408;29;20507;-67
2022/09/19 06:16:46;;;;;;;8.63;1.80;;;11.30;99.90;;;;;;4061060;29;20051;-67
2022/09/19 06:18:47;;;;;;;7.25;1.95;;;11.40;99.90;;;;;;4060833;29;20438;-67
2022/09/19 06:20:48;;;;;;;5.90;1.50;;;11.40;99.90;;;;;;4061035;29;20044;-67
2022/09/19 06:22:50;;;;;;;9.15;2.05;;;11.50;99.90;;;;;;4061351;29;20036;-66
2022/09/19 06:24:50;;;;;;;6.13;1.25;;;11.50;99.90;;;;;;4061314;29;20032;-68
2022/09/19 06:26:54;;;;;;;7.07;1.63;;;11.70;99.90;;;;;;4060833;29;20754;-67
2022/09/19 06:28:54;;;;;;;6.22;1.40;;;11.80;99.90;;;;;;4061538;29;20051;-67
2022/09/19 06:31:01;;;;;;;10.93;2.17;;;11.90;99.90;;;;;;4061647;29;20397;-67
2022/09/19 06:33:03;;;;;;;8.38;1.90;;;12.10;99.90;;;;;;4060729;29;20116;-67
2022/09/19 06:35:04;;;;;;;;;;;12.30;99.90;;;;;;4063579;29;20038;-67
2022/09/19 06:37:05;;;;;;;7.57;1.63;;;12.60;99.90;;;;;;4061488;29;20400;-67
2022/09/19 06:39:06;;;;;;;9.90;2.25;;;12.80;99.90;;;;;;4060955;29;20039;-67
2022/09/19 06:41:08;;;;;;;6.78;1.90;;;13.00;99.90;;;;;;4061459;29;20036;-67
2022/09/19 06:43:09;;;;;;;8.60;2.38;;;13.30;99.90;;;;;;4061917;29;20044;-67
2022/09/19 06:45:09;;;;;;;7.90;2.25;;;13.50;99.90;;;;;;4059404;29;20398;-67
2022/09/19 06:47:10;;;;;;;5.40;1.63;;;13.70;99.90;;;;;;4062275;29;20493;-67
2022/09/19 06:49:11;;;;;;;5.97;2.20;;;13.80;99.90;;;;;;4062562;29;20116;-68
2022/09/19 06:51:13;;;;;;;16.80;3.03;;;14.00;99.90;;;;;;4057537;29;20043;-67
2022/09/19 06:53:14;;;;;;;6.72;2.00;;;13.90;99.90;;;;;;4061892;29;20040;-67
2022/09/19 06:55:15;;;;;;;6.38;1.90;;;14.00;99.90;;;;;;4061784;29;20111;-67
2022/09/19 06:57:15;;;;;;;6.13;1.92;;;13.90;99.90;;;;;;4060195;29;20127;-67
2022/09/19 06:59:19;;;;;;;8.23;2.50;;;13.90;99.90;;;;;;4058549;29;20123;-67
2022/09/19 07:01:19;;;;;;;5.03;1.88;;;13.90;99.90;;;;;;4064045;28;20116;-67
2022/09/19 07:03:20;;;;;;;6.22;1.83;;;14.00;99.90;;;;;;4062179;29;20450;-67
2022/09/19 07:05:21;;;;;;;8.63;2.05;;;14.10;99.90;;;;;;4058268;29;20386;-67
2022/09/19 07:07:22;;;;;;;8.48;2.35;;;14.30;99.90;;;;;;4060695;29;20450;-67
2022/09/19 07:09:24;;;;;;;5.82;1.58;;;14.30;99.90;;;;;;4059699;29;20032;-67
2022/09/19 07:11:24;;;;;;;4.87;1.83;;;14.50;99.90;;;;;;4060438;29;20148;-67
2022/09/19 07:13:25;;;;;;;6.68;1.83;;;14.50;99.90;;;;;;4059640;29;20036;-67
2022/09/19 07:15:25;;;;;;;7.80;1.83;;;14.60;99.90;;;;;;4058105;29;20053;-68
2022/09/19 07:17:26;;;;;;;9.45;2.50;;;14.70;99.90;;;;;;4059157;28;20518;-67
2022/09/19 07:19:27;;;;;;;5.50;1.92;;;14.60;99.90;;;;;;4058897;28;20127;-67
2022/09/19 07:21:28;;;;;;;6.78;1.95;;;14.60;99.90;;;;;;4056464;29;20416;-67
2022/09/19 07:23:28;;;;;;;6.05;2.28;;;14.60;99.90;;;;;;4059744;28;20570;-67
2022/09/19 07:25:30;;;;;;;9.52;2.15;;;14.60;99.90;;;;;;4057136;29;20047;-67
2022/09/19 07:27:30;;;;;;;4.90;1.63;;;14.60;99.90;;;;;;4059997;28;20037;-67
2022/09/19 07:29:31;;;;;;;7.85;1.95;;;14.50;99.90;;;;;;4059560;28;20032;-68
2022/09/19 07:31:31;;;;;;;7.00;1.92;;;14.50;99.90;;;;;;4057302;28;20028;-67
2022/09/19 07:33:32;;;;;;;8.23;2.35;;;14.50;99.90;;;;;;4060390;29;20036;-67
2022/09/19 07:35:36;;;;;;;6.18;1.90;;;14.60;99.90;;;;;;4061409;29;20048;-67
2022/09/19 07:37:37;;;;;;;8.05;2.00;;;14.60;99.90;;;;;;4061145;29;20052;-67
2022/09/19 07:39:38;;;;;;;6.32;1.77;;;14.50;99.90;;;;;;4059529;29;20075;-68
2022/09/19 07:41:38;;;;;;;13.40;2.53;;;14.50;99.90;;;;;;4058871;28;20036;-67
2022/09/19 07:43:39;;;;;;;10.32;2.20;;;14.60;99.90;;;;;;4061012;29;20179;-67
2022/09/19 07:45:45;;;;;;;6.63;1.27;;;14.60;99.90;;;;;;4059539;29;20040;-67
2022/09/19 07:47:47;;;;;;;6.68;2.13;;;14.60;99.90;;;;;;4058233;29;20040;-67
2022/09/19 07:49:47;;;;;;;15.70;2.58;;;14.60;99.90;;;;;;4059592;29;20506;-67
2022/09/19 07:51:51;;;;;;;8.68;2.30;;;14.50;99.90;;;;;;4057919;29;20081;-67
2022/09/19 07:53:52;;;;;;;5.53;1.65;;;14.60;99.90;;;;;;4058235;29;20036;-67
2022/09/19 07:55:54;;;;;;;10.73;1.90;;;14.40;99.90;;;;;;4058820;29;20041;-67
2022/09/19 07:57:56;;;;;;;;;;;14.50;99.90;;;;;;4060319;29;20385;-67
2022/09/19 07:59:57;;;;;;;8.02;2.13;;;14.40;99.90;;;;;;4057786;29;19914;-66
2022/09/19 08:01:57;;;;;;;9.60;2.42;;;14.40;99.90;;;;;;4058831;29;20043;-67
2022/09/19 08:03:58;;;;;;;12.15;2.65;;;14.30;99.90;;;;;;4058153;29;20099;-67
2022/09/19 08:06:01;;;;;;;8.57;2.00;;;14.30;99.90;;;;;;4059550;28;20062;-67
2022/09/19 08:08:02;;;;;;;10.52;2.10;;;14.30;99.90;;;;;;4059905;29;20461;-67
2022/09/19 08:10:03;;;;;;;14.18;2.72;;;14.20;99.90;;;;;;4056573;29;21711;-67
2022/09/19 08:12:05;;;;;;;17.85;2.40;;;14.30;99.90;;;;;;4058565;29;20028;-67
2022/09/19 08:14:06;;;;;;;13.25;2.70;;;14.40;99.90;;;;;;4058822;29;20446;-67
2022/09/19 08:16:07;;;;;;;10.02;2.03;;;14.50;99.90;;;;;;4058235;29;20104;-67
2022/09/19 08:18:14;;;;;;;9.45;2.15;;;14.60;99.90;;;;;;4059783;29;20048;-67
2022/09/19 08:20:14;;;;;;;6.13;1.90;;;14.70;99.90;;;;;;4056671;29;20169;-67
2022/09/19 08:22:16;;;;;;;9.20;1.90;;;14.80;99.90;;;;;;4059760;29;20914;-67
2022/09/19 08:24:17;;;;;;;10.13;1.70;;;15.00;99.90;;;;;;4058847;29;20375;-67
2022/09/19 08:26:18;;;;;;;7.82;1.73;;;15.10;99.90;;;;;;4059430;29;20051;-67
2022/09/19 08:28:20;;;;;;;7.78;1.90;;;15.30;99.90;;;;;;4059155;29;20587;-67
2022/09/19 08:30:21;;;;;;;10.75;2.10;;;15.40;99.90;;;;;;4058376;29;20059;-67
2022/09/19 08:32:22;;;;;;;10.93;2.63;;;15.50;99.90;;;;;;4059225;29;20036;-67
2022/09/19 08:34:22;;;;;;;7.95;2.00;;;15.60;99.90;;;;;;4059026;29;20071;-67
2022/09/19 08:36:23;;;;;;;8.68;1.90;;;15.80;99.90;;;;;;4058987;29;20040;-67
2022/09/19 08:38:24;;;;;;;5.18;1.45;;;16.00;99.90;;;;;;4059799;29;20043;-67
2022/09/19 08:40:30;;;;;;;7.40;1.50;;;16.10;99.90;;;;;;4055639;29;20214;-66
2022/09/19 08:42:41;;;;;;;9.68;2.30;;;16.20;99.90;;;;;;4058821;29;20509;-67
2022/09/19 08:45:02;;;;;;;9.90;1.98;;;16.40;99.90;;;;;;4059079;29;20403;-67
2022/09/19 08:47:12;;;;;;;10.75;2.25;;;16.40;99.90;;;;;;4056523;29;20176;-67
2022/09/19 08:49:25;;;;;;;13.30;2.80;;;16.60;99.90;;;;;;4056314;29;20375;-67
2022/09/19 08:52:07;;;;;;;8.75;2.33;;;16.70;99.90;;;;;;4057920;29;20568;-67
2022/09/19 08:54:27;;;;;;;9.93;2.33;;;16.80;99.90;;;;;;4056545;29;20549;-67
2022/09/19 08:56:29;;;;;;;6.68;1.80;;;16.90;99.90;;;;;;4043359;29;20032;-67
2022/09/19 08:58:34;;;;;;;7.35;1.75;;;16.90;99.90;;;;;;4061711;29;20040;-67
2022/09/19 09:00:45;;;;;;;9.52;2.30;;;16.90;99.90;;;;;;4058591;29;20040;-67
2022/09/19 09:02:51;;;;;;;9.10;2.20;;;16.90;99.90;;;;;;4061629;29;20036;-67
2022/09/19 09:04:54;;;;;;;8.85;1.85;;;16.80;99.90;;;;;;4061868;29;20054;-68
2022/09/19 09:07:12;;;;;;;8.90;1.98;;;16.70;99.90;;;;;;4059609;29;20052;-67
2022/09/19 09:09:37;;;;;;;6.82;2.03;;;16.70;99.90;;;;;;4060267;29;20107;-67
2022/09/19 09:11:48;;;;;;;8.65;2.33;;;16.60;99.90;;;;;;4060572;29;20039;-67
2022/09/19 09:14:05;;;;;;;9.10;1.92;;;16.50;99.90;;;;;;4062234;29;20437;-67
2022/09/19 09:16:27;;;;;;;7.75;1.92;;;16.40;99.90;;;;;;4059240;29;20091;-67
2022/09/19 09:18:50;;;;;;;8.55;1.48;;;16.20;99.90;;;;;;4061734;29;20404;-67
2022/09/19 09:21:06;;;;;;;6.93;1.77;;;16.30;99.90;;;;;;4060399;29;20037;-67
2022/09/19 09:23:26;;;;;;;7.18;1.65;;;16.10;99.90;;;;;;4060815;29;20042;-69
2022/09/19 09:25:30;;;;;;;4.70;1.60;;;16.10;99.90;;;;;;4058949;29;20044;-67
2022/09/19 09:27:39;;;;;;;6.43;1.75;;;16.20;99.90;;;;;;4060620;29;20504;-67
2022/09/19 09:29:52;;;;;;;7.93;1.65;;;16.20;99.90;;;;;;4060578;29;20537;-67
2022/09/19 09:31:59;;;;;;;11.95;2.35;;;16.10;99.90;;;;;;4060493;29;20486;-67
2022/09/19 09:34:07;;;;;;;11.40;2.28;;;16.10;99.90;;;;;;4062413;29;20047;-67
2022/09/19 09:36:15;;;;;;;10.55;2.28;;;16.10;99.90;;;;;;4058977;29;20116;-66
2022/09/19 09:38:29;;;;;;;10.55;2.40;;;16.20;99.90;;;;;;4063195;29;20040;-66
2022/09/19 09:43:06;;;;;;;7.10;2.03;;;16.50;99.90;;;;;;4060987;29;20024;-67
2022/09/19 09:45:33;;;;;;;13.68;1.60;;;16.50;99.90;;;;;;4060874;29;20142;-66
2022/09/19 09:47:55;;;;;;;9.15;2.20;;;16.50;99.90;;;;;;4060904;29;20047;-67
2022/09/19 09:50:13;;;;;;;9.45;2.10;;;16.60;99.90;;;;;;4060815;29;20389;-67
2022/09/19 09:52:29;;;;;;;14.77;2.85;;;16.50;99.90;;;;;;4061559;29;20089;-67
2022/09/19 09:57:52;;;;;;;10.23;2.00;;;16.60;99.90;;;;;;4060894;29;20036;-66
2022/09/19 10:05:13;;;;;;;5.10;1.65;;;16.90;99.90;;;;;;4060378;29;20021;-66
2022/09/19 10:07:26;;;;;;;6.32;1.63;;;17.00;99.90;;;;;;4059548;29;20052;-66
2022/09/19 10:09:30;;;;;;;;;;;17.10;99.90;;;;;;4061327;29;20481;-67
2022/09/19 10:11:54;;;;;;;6.90;1.42;;;17.10;99.90;;;;;;4060564;29;19918;-67
2022/09/19 10:14:01;;;;;;;6.32;1.80;;;17.20;99.90;;;;;;4060739;29;20043;-66
2022/09/19 10:16:03;;;;;;;14.93;1.88;;;17.30;99.90;;;;;;4061158;29;20044;-67
2022/09/19 10:18:18;;;;;;;5.95;1.67;;;17.40;99.90;;;;;;4061368;29;20042;-67
2022/09/19 10:20:31;;;;;;;5.15;1.08;;;17.50;99.90;;;;;;4060146;29;20048;-67
2022/09/19 10:22:31;;;;;;;14.85;1.70;;;17.50;99.90;;;;;;4060777;29;20063;-67
2022/09/19 10:24:42;;;;;;;10.93;2.25;;;17.40;99.90;;;;;;4060452;29;20383;-69
2022/09/19 10:26:43;;;;;;;6.90;2.00;;;17.20;99.90;;;;;;4061185;29;20044;-66
2022/09/19 10:28:53;;;;;;;9.52;1.90;;;17.20;99.90;;;;;;4059169;29;20051;-66
2022/09/19 10:30:57;;;;;;;11.32;1.95;;;17.10;99.90;;;;;;4057963;29;20889;-66
2022/09/19 10:33:02;;;;;;;6.35;1.55;;;17.00;99.90;;;;;;4060863;29;20048;-66
2022/09/19 10:35:30;;;;;;;7.60;1.85;;;17.00;99.90;;;;;;4057925;29;20059;-66
2022/09/19 10:37:31;;;;;;;5.30;1.63;;;17.00;99.90;;;;;;4057604;29;20458;-66
2022/09/19 10:39:43;;;;;;;9.00;1.83;;;17.00;99.90;;;;;;4059138;29;20036;-67
2022/09/19 10:41:45;;;;;;;7.00;1.58;;;17.00;99.90;;;;;;4057987;29;20382;-66
2022/09/19 10:43:51;;;;;;;7.95;1.70;;;17.10;99.90;;;;;;4056438;29;20060;-66
2022/09/19 10:45:52;;;;;;;5.55;1.38;;;17.20;99.90;;;;;;4059725;29;20123;-66
2022/09/19 10:48:16;;;;;;;6.95;1.55;;;17.30;99.90;;;;;;4059677;29;20070;-66
2022/09/19 10:50:18;;;;;;;6.85;1.60;;;17.30;99.90;;;;;;4057208;29;20070;-66
2022/09/19 10:52:22;;;;;;;9.20;1.67;;;17.40;99.90;;;;;;4059044;29;20123;-66
2022/09/19 10:54:37;;;;;;;9.43;1.92;;;17.50;99.90;;;;;;4060705;29;20051;-66
2022/09/19 10:56:40;;;;;;;6.40;1.52;;;17.60;99.90;;;;;;4059011;29;20135;-66
2022/09/19 10:58:42;;;;;;;8.65;1.65;;;17.70;99.90;;;;;;4059009;29;20127;-67
2022/09/19 11:00:55;;;;;;;8.80;1.93;;;17.80;99.90;;;;;;4059585;29;20078;-66
2022/09/19 11:02:57;;;;;;;;;;;17.90;99.90;;;;;;4060382;29;20123;-67
2022/09/19 11:05:02;;;;;;;5.43;1.58;;;17.70;99.90;;;;;;4059424;29;20023;-67
2022/09/19 11:07:17;;;;;;;7.55;1.48;;;17.70;99.90;;;;;;4059635;29;20058;-67